Terminal Aerodrome Forecast
Issued by NWS

Home | Current Version | Previous Version | Text Only | Print | Product List | Glossary On
Versions: 1 2 3 4 5 6 7 8 9 10 11 12 13 14 15 16
000
FTUS41 KBTV 250539
TAFRUT
TAF
KRUT 250539Z 2506/2606 14015KT P6SM BKN028 OVC035 WS020/19045KT
     FM250800 17013G23KT 6SM -SHRA BR BKN025 OVC035 WS020/20050KT
     FM251300 24012G26KT 3SM RA BR OVC035
     FM251500 25015G28KT P6SM VCSH BKN035 OVC050
     FM252300 27014G26KT P6SM BKN060
      AMD LTD TO CLD VIS AND WIND=

USA.gov is the U.S. government's official web portal to all federal, state and local government web resources and services.